Terminal Aerodrome Forecast
Issued by NWS

Home | Current Version | Previous Version | Text Only | Print | Product List | Glossary On
Versions: 1 2 3 4 5 6 7 8 9 10 11 12
000
FTAK31 PAJN 010500
TAFAPG
TAF
PAPG 010529Z 0106/0206 00000KT P6SM BKN070
     FM011200 00000KT 6SM -RA BR BKN020 OVC040
     FM011500 VRB03KT 4SM -RA BR BKN010 OVC026
     FM011900 VRB04KT P6SM BKN025
     FM012100 04005KT P6SM FEW025
      AMD LTD TO CLD VIS AND WIND 0106/0115=

USA.gov is the U.S. government's official web portal to all federal, state and local government web resources and services.